Terminal Aerodrome Forecast
Issued by NWS Knoxville/Tri Cities, TN

Home | Current Version | Previous Version | Text Only | Print | Product List | Glossary On
Versions: 1 2 3 4 5 6 7 8 9 10 11 12 13
000
FTUS44 KMRX 252336
TAFTRI
TAF
KTRI 252336Z 2600/2624 VRB03KT P6SM SCT080 BKN200
     FM261200 VRB03KT P6SM -SHRA SCT040 OVC070
     FM261800 20008KT P6SM SCT050 BKN080
     FM262100 20010KT P6SM VCSH BKN050=

USA.gov is the U.S. government's official web portal to all federal, state and local government web resources and services.